createdAt,value
2023-02-20T00:02:02.090Z,3.30
2023-02-20T00:04:30.784Z,3.30
2023-02-20T00:06:59.468Z,3.30
2023-02-20T00:09:28.562Z,3.30
2023-02-20T00:11:57.143Z,3.30
2023-02-20T00:14:25.830Z,3.30
2023-02-20T00:16:54.620Z,3.30
2023-02-20T00:19:23.476Z,3.30
2023-02-20T00:21:53.120Z,3.30
2023-02-20T00:24:22.020Z,3.20
2023-02-20T00:26:53.855Z,3.20
2023-02-20T00:29:24.573Z,3.20
2023-02-20T00:31:58.888Z,3.20
2023-02-20T00:34:28.948Z,3.18
2023-02-20T00:36:57.839Z,3.18
2023-02-20T00:39:26.435Z,3.14
2023-02-20T00:41:56.751Z,3.10
2023-02-20T00:44:26.154Z,3.12
2023-02-20T00:46:55.366Z,3.10
2023-02-20T00:49:24.141Z,3.10
2023-02-20T00:51:53.961Z,3.10
2023-02-20T00:54:22.577Z,3.10
2023-02-20T00:56:51.330Z,3.10
2023-02-20T00:59:19.913Z,3.10
2023-02-20T01:01:49.365Z,3.06
2023-02-20T01:04:18.348Z,3.06
2023-02-20T01:06:47.082Z,3.00
2023-02-20T01:09:15.684Z,3.00
2023-02-20T01:11:45.940Z,3.00
2023-02-20T01:14:16.553Z,3.00
2023-02-20T01:16:47.582Z,3.00
2023-02-20T01:19:16.692Z,3.00
2023-02-20T01:21:45.579Z,3.00
2023-02-20T01:24:14.169Z,3.00
2023-02-20T01:26:49.201Z,3.00
2023-02-20T01:29:18.693Z,3.02
2023-02-20T01:31:51.884Z,3.10
2023-02-20T01:34:21.740Z,3.00
2023-02-20T01:36:54.210Z,3.00
2023-02-20T01:39:27.062Z,3.08
2023-02-20T01:42:02.588Z,3.10
2023-02-20T01:44:35.113Z,3.10
2023-02-20T01:47:09.658Z,3.10
2023-02-20T01:49:51.406Z,3.00
2023-02-20T01:52:32.016Z,3.10
2023-02-20T01:55:11.002Z,3.08
2023-02-20T01:57:49.216Z,3.04
2023-02-20T02:00:21.934Z,3.00
2023-02-20T02:03:03.051Z,3.00
2023-02-20T02:05:33.763Z,3.00
2023-02-20T02:08:06.782Z,3.02
2023-02-20T02:10:50.026Z,3.10
2023-02-20T02:13:19.120Z,3.10
2023-02-20T02:15:52.001Z,3.10
2023-02-20T02:18:36.251Z,3.10
2023-02-20T02:21:45.314Z,3.10
2023-02-20T02:24:52.369Z,3.10
2023-02-20T02:27:55.265Z,3.12
2023-02-20T02:30:45.158Z,3.20
2023-02-20T02:33:43.319Z,3.20
2023-02-20T02:36:12.131Z,3.20
2023-02-20T02:39:03.226Z,3.30
2023-02-20T02:41:54.140Z,3.30
2023-02-20T02:44:57.528Z,3.30
2023-02-20T02:47:37.787Z,3.40
2023-02-20T02:50:22.249Z,3.40
2023-02-20T02:52:52.064Z,3.48
2023-02-20T02:55:28.187Z,3.50
2023-02-20T02:57:57.427Z,3.50
2023-02-20T03:00:45.319Z,3.50
2023-02-20T03:03:20.284Z,3.50
2023-02-20T03:06:12.559Z,3.60
2023-02-20T03:09:02.330Z,3.60
2023-02-20T03:11:33.717Z,3.60
2023-02-20T03:14:28.563Z,3.70
2023-02-20T03:17:13.647Z,3.70
2023-02-20T03:19:47.752Z,3.70
2023-02-20T03:22:22.375Z,3.70
2023-02-20T03:24:57.158Z,3.74
2023-02-20T03:27:42.696Z,3.70
2023-02-20T03:30:50.715Z,3.72
2023-02-20T03:33:57.584Z,3.80
2023-02-20T03:37:08.869Z,3.80
2023-02-20T03:40:04.086Z,3.80
2023-02-20T03:42:56.214Z,3.80
2023-02-20T03:45:32.754Z,3.88
2023-02-20T03:48:10.488Z,3.90
2023-02-20T03:50:39.994Z,3.92
2023-02-20T03:53:08.789Z,4.00
2023-02-20T03:55:37.578Z,4.00
2023-02-20T03:58:11.313Z,4.00
2023-02-20T04:00:45.049Z,4.02
2023-02-20T04:03:32.814Z,4.08
2023-02-20T04:06:04.882Z,4.10
2023-02-20T04:08:55.072Z,4.10
2023-02-20T04:11:31.745Z,4.10
2023-02-20T04:14:02.746Z,4.10
2023-02-20T04:16:37.462Z,4.18
2023-02-20T04:19:06.271Z,4.20
2023-02-20T04:21:43.964Z,4.20
2023-02-20T04:24:29.795Z,4.28
2023-02-20T04:26:59.808Z,4.30
2023-02-20T04:29:29.312Z,4.30
2023-02-20T04:31:58.995Z,4.40
2023-02-20T04:34:30.781Z,4.40
2023-02-20T04:37:19.264Z,4.40
2023-02-20T04:39:48.530Z,4.50
2023-02-20T04:42:17.936Z,4.50
2023-02-20T04:44:46.926Z,4.54
2023-02-20T04:47:18.738Z,4.58
2023-02-20T04:49:47.269Z,4.60
2023-02-20T04:52:19.744Z,4.60
2023-02-20T04:54:49.793Z,4.60
2023-02-20T04:57:19.885Z,4.60
2023-02-20T04:59:49.144Z,4.60
2023-02-20T05:02:17.869Z,4.60
2023-02-20T05:04:46.536Z,4.70
2023-02-20T05:07:17.397Z,4.70
2023-02-20T05:09:45.981Z,4.70
2023-02-20T05:12:14.770Z,4.80
2023-02-20T05:14:43.356Z,4.80
2023-02-20T05:17:11.842Z,4.80
2023-02-20T05:19:40.425Z,4.80
2023-02-20T05:22:23.068Z,4.80
2023-02-20T05:24:52.364Z,4.80
2023-02-20T05:27:23.278Z,4.80
2023-02-20T05:29:55.590Z,4.80
2023-02-20T05:32:27.267Z,4.90
2023-02-20T05:34:56.418Z,4.90
2023-02-20T05:37:27.768Z,4.90
2023-02-20T05:39:56.560Z,4.90
2023-02-20T05:42:25.643Z,4.90
2023-02-20T05:44:54.436Z,4.90
2023-02-20T05:47:23.220Z,4.90
2023-02-20T05:49:52.019Z,4.90
2023-02-20T05:52:20.621Z,5.00
2023-02-20T05:54:49.384Z,5.00
2023-02-20T05:57:17.978Z,5.10
2023-02-20T05:59:46.762Z,5.10
2023-02-20T06:02:15.235Z,5.10
2023-02-20T06:04:44.032Z,5.10
2023-02-20T06:07:12.833Z,5.10
2023-02-20T06:09:45.458Z,5.16
2023-02-20T06:12:15.103Z,5.20
2023-02-20T06:14:45.803Z,5.20
2023-02-20T06:17:15.145Z,5.30
2023-02-20T06:19:43.824Z,5.30
2023-02-20T06:22:13.237Z,5.34
2023-02-20T06:24:47.650Z,5.40
2023-02-20T06:27:17.991Z,5.40
2023-02-20T06:29:49.754Z,5.40
2023-02-20T06:32:18.541Z,5.50
2023-02-20T06:34:47.552Z,5.50
2023-02-20T06:37:16.309Z,5.50
2023-02-20T06:39:47.046Z,5.60
2023-02-20T06:42:16.850Z,5.60
2023-02-20T06:44:45.452Z,5.60
2023-02-20T06:47:14.236Z,5.60
2023-02-20T06:49:43.868Z,5.60
2023-02-20T06:52:12.530Z,5.62
2023-02-20T06:54:41.121Z,5.70
2023-02-20T06:57:09.701Z,5.70
2023-02-20T06:59:41.878Z,5.70
2023-02-20T07:02:12.865Z,5.70
2023-02-20T07:04:41.604Z,5.70
2023-02-20T07:07:10.285Z,5.70
2023-02-20T07:09:38.867Z,5.70
2023-02-20T07:12:08.167Z,5.72
2023-02-20T07:14:37.071Z,5.74
2023-02-20T07:17:06.257Z,5.76
2023-02-20T07:19:34.741Z,5.80
2023-02-20T07:22:03.630Z,5.80
2023-02-20T07:24:32.250Z,5.80
2023-02-20T07:27:00.700Z,5.90
2023-02-20T07:29:29.485Z,5.90
2023-02-20T07:31:58.579Z,5.90
2023-02-20T07:34:27.270Z,5.94
2023-02-20T07:36:56.163Z,6.00
2023-02-20T07:39:26.700Z,6.00
2023-02-20T07:41:55.312Z,6.00
2023-02-20T07:44:49.306Z,6.00
2023-02-20T07:47:17.942Z,6.04
2023-02-20T07:49:46.838Z,6.10
2023-02-20T07:52:15.459Z,6.10
2023-02-20T07:54:43.994Z,6.18
2023-02-20T07:57:12.593Z,6.20
2023-02-20T07:59:43.023Z,6.20
2023-02-20T08:02:11.711Z,6.22
2023-02-20T08:04:40.715Z,6.30
2023-02-20T08:07:09.693Z,6.30
2023-02-20T08:09:38.692Z,6.40
2023-02-20T08:12:07.696Z,6.40
2023-02-20T08:14:37.206Z,6.50
2023-02-20T08:17:06.093Z,6.60
2023-02-20T08:19:35.171Z,6.60
2023-02-20T08:22:04.194Z,6.70
2023-02-20T08:24:33.405Z,6.70
2023-02-20T08:27:02.362Z,6.80
2023-02-20T08:29:31.271Z,6.90
2023-02-20T08:32:00.456Z,6.92
2023-02-20T08:34:29.445Z,7.00
2023-02-20T08:36:58.132Z,7.00
2023-02-20T08:39:27.262Z,7.00
2023-02-20T08:41:56.113Z,7.00
2023-02-20T08:44:24.801Z,7.04
2023-02-20T08:46:53.489Z,7.10
2023-02-20T08:49:23.265Z,7.10
2023-02-20T08:51:56.219Z,7.20
2023-02-20T08:54:24.994Z,7.20
2023-02-20T08:56:53.558Z,7.30
2023-02-20T08:59:22.525Z,7.30
2023-02-20T09:01:51.260Z,7.40
2023-02-20T09:04:21.666Z,7.40
2023-02-20T09:06:50.353Z,7.50
2023-02-20T09:09:19.038Z,7.52
2023-02-20T09:11:47.932Z,7.60
2023-02-20T09:14:16.619Z,7.70
2023-02-20T09:16:45.419Z,7.80
2023-02-20T09:19:15.491Z,7.88
2023-02-20T09:21:47.021Z,7.90
2023-02-20T09:24:16.695Z,8.00
2023-02-20T09:26:45.282Z,8.10
2023-02-20T09:29:13.969Z,8.10
2023-02-20T09:31:43.085Z,8.20
2023-02-20T09:34:11.953Z,8.26
2023-02-20T09:36:40.640Z,8.30
2023-02-20T09:39:09.526Z,8.30
2023-02-20T09:41:41.195Z,8.40
2023-02-20T09:44:30.568Z,8.40
2023-02-20T09:47:28.229Z,8.40
2023-02-20T09:50:05.302Z,8.50
2023-02-20T09:52:40.700Z,8.50
2023-02-20T09:55:19.894Z,8.60
2023-02-20T09:57:53.477Z,8.60
2023-02-20T10:00:30.726Z,8.60
2023-02-20T10:03:35.349Z,8.70
2023-02-20T10:06:15.825Z,8.78
2023-02-20T10:08:44.985Z,8.80
2023-02-20T10:11:29.629Z,8.90
2023-02-20T10:14:16.962Z,9.00
2023-02-20T10:17:03.571Z,9.10
2023-02-20T10:19:56.947Z,9.14
2023-02-20T10:23:05.456Z,9.30
2023-02-20T10:25:41.310Z,9.40
2023-02-20T10:28:15.156Z,9.48
2023-02-20T10:31:01.568Z,9.60
2023-02-20T10:33:43.037Z,9.74
2023-02-20T10:36:39.850Z,9.80
2023-02-20T10:39:22.270Z,9.80
2023-02-20T10:42:04.711Z,9.88
2023-02-20T10:44:52.516Z,9.90
2023-02-20T10:48:04.097Z,10.00
2023-02-20T10:50:43.639Z,10.10
2023-02-20T10:53:44.287Z,10.30
2023-02-20T10:57:01.611Z,10.66
2023-02-20T10:59:46.667Z,11.10
2023-02-20T11:02:23.572Z,11.20
2023-02-20T11:05:09.128Z,11.28
2023-02-20T11:07:37.920Z,11.26
2023-02-20T11:10:07.499Z,11.20
2023-02-20T11:12:59.787Z,11.20
2023-02-20T11:15:33.873Z,11.20
2023-02-20T11:18:17.987Z,11.20
2023-02-20T11:20:48.263Z,11.20
2023-02-20T11:23:44.665Z,11.10
2023-02-20T11:26:16.799Z,11.10
2023-02-20T11:28:55.396Z,11.20
2023-02-20T11:31:25.649Z,11.20
2023-02-20T11:33:56.938Z,11.20
2023-02-20T11:36:31.559Z,11.10
2023-02-20T11:39:07.043Z,11.20
2023-02-20T11:41:38.632Z,11.20
2023-02-20T11:44:11.390Z,11.10
2023-02-20T11:46:41.518Z,11.10
2023-02-20T11:49:29.522Z,11.00
2023-02-20T11:52:21.181Z,11.00
2023-02-20T11:55:21.890Z,10.90
2023-02-20T11:57:52.426Z,10.90
2023-02-20T12:00:44.355Z,10.80
2023-02-20T12:03:18.215Z,10.80
2023-02-20T12:05:50.096Z,10.90
2023-02-20T12:08:49.319Z,10.90
2023-02-20T12:11:26.027Z,10.90
2023-02-20T12:13:58.566Z,11.00
2023-02-20T12:16:33.097Z,11.00
2023-02-20T12:19:29.432Z,11.10
2023-02-20T12:22:13.061Z,11.08
2023-02-20T12:25:13.934Z,11.10
2023-02-20T12:28:16.900Z,11.10
2023-02-20T12:31:21.484Z,11.20
2023-02-20T12:34:03.940Z,11.20
2023-02-20T12:36:51.771Z,11.30
2023-02-20T12:39:49.125Z,11.40
2023-02-20T12:42:54.268Z,11.48
2023-02-20T12:46:14.253Z,11.40
2023-02-20T12:49:18.278Z,11.40
2023-02-20T12:52:26.728Z,11.50
2023-02-20T12:55:11.865Z,11.50
2023-02-20T12:57:59.394Z,11.50
2023-02-20T13:00:46.544Z,11.50
2023-02-20T13:03:38.259Z,11.50
2023-02-20T13:06:08.113Z,11.50
2023-02-20T13:08:59.167Z,11.50
2023-02-20T13:11:43.208Z,11.48
2023-02-20T13:14:14.795Z,11.40
2023-02-20T13:17:39.445Z,11.40
2023-02-20T13:20:28.337Z,11.30
2023-02-20T13:23:26.813Z,11.30
2023-02-20T13:25:56.956Z,11.30
2023-02-20T13:28:45.295Z,11.20
2023-02-20T13:31:45.466Z,11.20
2023-02-20T13:34:14.244Z,11.20
2023-02-20T13:36:45.933Z,11.10
2023-02-20T13:39:20.754Z,11.10
2023-02-20T13:41:55.449Z,11.10
2023-02-20T13:44:30.786Z,11.06
2023-02-20T13:47:34.974Z,11.00
2023-02-20T13:50:29.001Z,11.00
2023-02-20T13:53:00.404Z,11.00
2023-02-20T13:55:29.502Z,11.00
2023-02-20T13:58:17.030Z,11.00
2023-02-20T14:00:55.281Z,11.00
2023-02-20T14:03:34.756Z,11.00
2023-02-20T14:06:15.455Z,10.98
2023-02-20T14:08:48.451Z,10.92
2023-02-20T14:11:39.076Z,10.90
2023-02-20T14:14:20.833Z,10.98
2023-02-20T14:16:50.777Z,10.92
2023-02-20T14:19:26.273Z,10.90
2023-02-20T14:21:56.355Z,10.90
2023-02-20T14:24:29.431Z,10.90
2023-02-20T14:27:00.225Z,10.88
2023-02-20T14:29:36.859Z,10.80
2023-02-20T14:32:06.803Z,10.80
2023-02-20T14:34:53.336Z,10.80
2023-02-20T14:37:34.418Z,10.72
2023-02-20T14:40:10.709Z,10.70
2023-02-20T14:42:45.455Z,10.70
2023-02-20T14:45:27.429Z,10.68
2023-02-20T14:48:01.802Z,10.62
2023-02-20T14:50:34.343Z,10.64
2023-02-20T14:53:21.343Z,10.62
2023-02-20T14:55:51.341Z,10.60
2023-02-20T14:58:28.726Z,10.60
2023-02-20T15:00:58.071Z,10.58
2023-02-20T15:03:31.682Z,10.50
2023-02-20T15:06:04.464Z,10.50
2023-02-20T15:08:38.073Z,10.50
2023-02-20T15:11:13.741Z,10.50
2023-02-20T15:13:46.800Z,10.50
2023-02-20T15:16:26.632Z,10.50
2023-02-20T15:18:55.919Z,10.50
2023-02-20T15:21:41.765Z,10.52
2023-02-20T15:24:27.997Z,10.50
2023-02-20T15:27:20.447Z,10.50
2023-02-20T15:30:16.793Z,10.54
2023-02-20T15:32:53.620Z,10.54
2023-02-20T15:35:28.988Z,10.56
2023-02-20T15:38:03.560Z,10.60
2023-02-20T15:40:34.726Z,10.60
2023-02-20T15:43:18.694Z,10.60
2023-02-20T15:45:55.109Z,10.60
2023-02-20T15:48:24.419Z,10.60
2023-02-20T15:50:53.684Z,10.60
2023-02-20T15:53:30.562Z,10.52
2023-02-20T15:56:02.523Z,10.50
2023-02-20T15:58:37.390Z,10.50
2023-02-20T16:01:07.723Z,10.50
2023-02-20T16:03:50.561Z,10.50
2023-02-20T16:06:23.729Z,10.50
2023-02-20T16:08:54.705Z,10.50
2023-02-20T16:11:36.222Z,10.50
2023-02-20T16:14:05.412Z,10.50
2023-02-20T16:16:39.415Z,10.50
2023-02-20T16:19:30.748Z,10.50
2023-02-20T16:22:12.490Z,10.50
2023-02-20T16:24:44.802Z,10.50
2023-02-20T16:27:27.745Z,10.50
2023-02-20T16:29:57.738Z,10.50
2023-02-20T16:32:28.959Z,10.60
2023-02-20T16:35:00.612Z,10.60
2023-02-20T16:37:29.776Z,10.60
2023-02-20T16:39:58.448Z,10.60
2023-02-20T16:42:48.039Z,10.60
2023-02-20T16:45:21.065Z,10.60
2023-02-20T16:47:53.118Z,10.60
2023-02-20T16:50:30.385Z,10.60
2023-02-20T16:53:03.240Z,10.60
2023-02-20T16:55:36.262Z,10.60
2023-02-20T16:58:05.981Z,10.60
2023-02-20T17:00:57.193Z,10.60
2023-02-20T17:03:28.054Z,10.60
2023-02-20T17:05:59.951Z,10.60
2023-02-20T17:08:29.400Z,10.60
2023-02-20T17:10:58.276Z,10.60
2023-02-20T17:13:27.048Z,10.60
2023-02-20T17:15:55.887Z,10.60
2023-02-20T17:18:24.930Z,10.60
2023-02-20T17:20:53.722Z,10.60
2023-02-20T17:23:22.507Z,10.60
2023-02-20T17:25:51.398Z,10.60
2023-02-20T17:28:20.700Z,10.60
2023-02-20T17:30:54.655Z,10.60
2023-02-20T17:33:26.110Z,10.60
2023-02-20T17:35:55.076Z,10.60
2023-02-20T17:38:24.667Z,10.60
2023-02-20T17:40:53.259Z,10.60
2023-02-20T17:43:22.161Z,10.60
2023-02-20T17:45:50.836Z,10.60
2023-02-20T17:48:19.621Z,10.60
2023-02-20T17:50:48.405Z,10.60
2023-02-20T17:53:18.189Z,10.60
2023-02-20T17:55:47.019Z,10.60
2023-02-20T17:58:15.799Z,10.60
2023-02-20T18:00:46.069Z,10.60
2023-02-20T18:03:14.813Z,10.60
2023-02-20T18:05:43.705Z,10.60
2023-02-20T18:08:12.388Z,10.60
2023-02-20T18:10:41.170Z,10.60
2023-02-20T18:13:09.963Z,10.60
2023-02-20T18:15:40.838Z,10.60
2023-02-20T18:18:14.436Z,10.60
2023-02-20T18:20:43.401Z,10.60
2023-02-20T18:23:12.489Z,10.60
2023-02-20T18:25:41.468Z,10.60
2023-02-20T18:28:11.115Z,10.60
2023-02-20T18:30:41.183Z,10.60
2023-02-20T18:33:10.207Z,10.60
2023-02-20T18:35:39.009Z,10.60
2023-02-20T18:38:07.615Z,10.60
2023-02-20T18:40:36.279Z,10.60
2023-02-20T18:43:05.055Z,10.60
2023-02-20T18:45:33.928Z,10.60
2023-02-20T18:48:02.635Z,10.60
2023-02-20T18:50:31.638Z,10.60
2023-02-20T18:53:00.493Z,10.60
2023-02-20T18:55:29.398Z,10.60
2023-02-20T18:57:59.222Z,10.60
2023-02-20T19:00:34.799Z,10.60
2023-02-20T19:03:04.811Z,10.60
2023-02-20T19:05:33.997Z,10.60
2023-02-20T19:08:04.664Z,10.70
2023-02-20T19:10:33.530Z,10.70
2023-02-20T19:13:03.120Z,10.70
2023-02-20T19:15:31.709Z,10.70
2023-02-20T19:18:00.601Z,10.64
2023-02-20T19:20:33.097Z,10.66
2023-02-20T19:23:03.917Z,10.70
2023-02-20T19:25:32.732Z,10.70
2023-02-20T19:28:01.394Z,10.70
2023-02-20T19:30:30.394Z,10.70
2023-02-20T19:32:59.273Z,10.70
2023-02-20T19:35:27.987Z,10.70
2023-02-20T19:37:56.662Z,10.70
2023-02-20T19:40:25.559Z,10.70
2023-02-20T19:42:54.270Z,10.70
2023-02-20T19:45:23.016Z,10.70
2023-02-20T19:47:51.916Z,10.70
2023-02-20T19:50:21.202Z,10.70
2023-02-20T19:52:50.620Z,10.70
2023-02-20T19:55:21.773Z,10.70
2023-02-20T19:57:50.755Z,10.70
2023-02-20T20:00:21.431Z,10.70
2023-02-20T20:02:53.262Z,10.70
2023-02-20T20:05:22.147Z,10.70
2023-02-20T20:07:51.035Z,10.70
2023-02-20T20:10:22.697Z,10.70
2023-02-20T20:12:51.584Z,10.70
2023-02-20T20:15:25.905Z,10.70
2023-02-20T20:18:00.873Z,10.70
2023-02-20T20:20:32.034Z,10.70
2023-02-20T20:23:03.175Z,10.70
2023-02-20T20:25:32.633Z,10.70
2023-02-20T20:28:03.128Z,10.70
2023-02-20T20:30:33.305Z,10.70
2023-02-20T20:33:02.064Z,10.70
2023-02-20T20:35:31.172Z,10.70
2023-02-20T20:38:02.556Z,10.70
2023-02-20T20:40:31.778Z,10.62
2023-02-20T20:43:00.500Z,10.64
2023-02-20T20:45:29.597Z,10.64
2023-02-20T20:47:58.286Z,10.68
2023-02-20T20:50:28.124Z,10.68
2023-02-20T20:53:03.642Z,10.68
2023-02-20T20:55:34.993Z,10.68
2023-02-20T20:58:04.186Z,10.70
2023-02-20T21:00:35.990Z,10.70
2023-02-20T21:03:07.169Z,10.70
2023-02-20T21:05:35.978Z,10.70
2023-02-20T21:08:06.570Z,10.70
2023-02-20T21:10:36.709Z,10.70
2023-02-20T21:13:05.831Z,10.68
2023-02-20T21:15:35.714Z,10.68
2023-02-20T21:18:06.368Z,10.70
2023-02-20T21:20:36.204Z,10.70
2023-02-20T21:23:05.397Z,10.70
2023-02-20T21:25:34.105Z,10.70
2023-02-20T21:28:04.894Z,10.70
2023-02-20T21:30:34.266Z,10.70
2023-02-20T21:33:04.855Z,10.70
2023-02-20T21:35:34.353Z,10.70
2023-02-20T21:38:05.409Z,10.70
2023-02-20T21:40:34.797Z,10.70
2023-02-20T21:43:23.151Z,10.70
2023-02-20T21:45:53.311Z,10.70
2023-02-20T21:48:23.429Z,10.70
2023-02-20T21:50:52.585Z,10.70
2023-02-20T21:53:23.250Z,10.70
2023-02-20T21:55:53.681Z,10.70
2023-02-20T21:58:41.990Z,10.70
2023-02-20T22:01:10.748Z,10.70
2023-02-20T22:03:39.476Z,10.70
2023-02-20T22:06:09.390Z,10.70
2023-02-20T22:08:57.838Z,10.70
2023-02-20T22:11:46.197Z,10.70
2023-02-20T22:14:34.146Z,10.72
2023-02-20T22:17:23.701Z,10.74
2023-02-20T22:20:15.487Z,10.78
2023-02-20T22:23:04.524Z,10.76
2023-02-20T22:25:52.639Z,10.78
2023-02-20T22:28:39.728Z,10.76
2023-02-20T22:31:26.820Z,10.70
2023-02-20T22:34:14.713Z,10.72
2023-02-20T22:37:02.043Z,10.72
2023-02-20T22:39:49.166Z,10.70
2023-02-20T22:42:36.484Z,10.78
2023-02-20T22:45:24.508Z,10.74
2023-02-20T22:48:11.689Z,10.70
2023-02-20T22:50:59.044Z,10.70
2023-02-20T22:53:46.290Z,10.70
2023-02-20T22:56:42.214Z,10.70
2023-02-20T22:59:29.322Z,10.70
2023-02-20T23:02:16.584Z,10.70
2023-02-20T23:05:05.783Z,10.70
2023-02-20T23:07:53.151Z,10.70
2023-02-20T23:10:41.498Z,10.70
2023-02-20T23:13:29.549Z,10.70
2023-02-20T23:16:17.244Z,10.70
2023-02-20T23:19:04.804Z,10.70
2023-02-20T23:21:51.924Z,10.70
2023-02-20T23:24:39.656Z,10.70
2023-02-20T23:27:26.878Z,10.70
2023-02-20T23:30:14.417Z,10.70
2023-02-20T23:33:01.587Z,10.70
2023-02-20T23:35:48.643Z,10.66
2023-02-20T23:38:35.813Z,10.64
2023-02-20T23:41:24.929Z,10.60
2023-02-20T23:44:12.353Z,10.60
2023-02-20T23:47:06.682Z,10.60
2023-02-20T23:49:54.001Z,10.60
2023-02-20T23:52:40.918Z,10.60
2023-02-20T23:55:28.606Z,10.60
2023-02-20T23:58:16.000Z,10.60
